createdAt,value
2019-04-03T00:00:43.593Z,12.90
2019-04-03T00:03:16.006Z,11.80
2019-04-03T00:05:48.462Z,12.20
2019-04-03T00:08:20.961Z,13.00
2019-04-03T00:10:53.242Z,11.43
2019-04-03T00:13:25.576Z,12.20
2019-04-03T00:15:57.943Z,12.70
2019-04-03T00:18:30.510Z,12.50
2019-04-03T00:21:02.943Z,13.77
2019-04-03T00:23:35.166Z,12.83
2019-04-03T00:26:07.410Z,12.77
2019-04-03T00:28:39.794Z,12.30
2019-04-03T00:31:12.107Z,11.87
2019-04-03T00:33:44.447Z,12.30
2019-04-03T00:36:16.765Z,12.87
2019-04-03T00:38:49.179Z,11.87
2019-04-03T00:41:22.710Z,12.73
2019-04-03T00:43:55.580Z,11.87
2019-04-03T00:46:27.830Z,12.50
2019-04-03T00:49:00.298Z,13.00
2019-04-03T00:51:32.732Z,12.23
2019-04-03T00:54:05.186Z,12.50
2019-04-03T00:56:37.743Z,12.13
2019-04-03T00:59:09.940Z,12.17
2019-04-03T01:01:42.572Z,12.60
2019-04-03T01:04:15.271Z,12.90
2019-04-03T01:06:47.822Z,11.67
2019-04-03T01:09:20.029Z,11.83
2019-04-03T01:11:52.296Z,12.63
2019-04-03T01:14:24.739Z,12.20
2019-04-03T01:16:57.346Z,12.20
2019-04-03T01:19:29.703Z,12.47
2019-04-03T01:22:02.009Z,12.50
2019-04-03T01:24:34.372Z,12.30
2019-04-03T01:27:06.688Z,12.43
2019-04-03T01:29:38.953Z,13.40
2019-04-03T01:32:11.322Z,13.00
2019-04-03T01:34:44.037Z,13.20
2019-04-03T01:37:16.813Z,12.63
2019-04-03T01:39:51.231Z,12.33
2019-04-03T01:42:23.928Z,12.43
2019-04-03T01:44:56.487Z,13.03
2019-04-03T01:47:28.784Z,12.27
2019-04-03T01:50:01.415Z,11.87
2019-04-03T01:52:33.707Z,12.07
2019-04-03T01:55:06.181Z,12.97
2019-04-03T01:57:38.370Z,11.90
2019-04-03T02:00:11.294Z,12.37
2019-04-03T02:02:43.935Z,12.90
2019-04-03T02:05:16.387Z,12.67
2019-04-03T02:07:48.689Z,11.47
2019-04-03T02:10:22.208Z,13.17
2019-04-03T02:12:54.629Z,12.50
2019-04-03T02:15:27.164Z,13.00
2019-04-03T02:17:59.698Z,13.07
2019-04-03T02:20:32.188Z,12.13
2019-04-03T02:23:04.629Z,12.30
2019-04-03T02:25:37.231Z,13.37
2019-04-03T02:28:09.718Z,13.43
2019-04-03T02:30:44.775Z,12.97
2019-04-03T02:33:16.490Z,13.27
2019-04-03T02:35:48.977Z,12.57
2019-04-03T02:38:22.598Z,13.70
2019-04-03T02:40:55.566Z,13.30
2019-04-03T02:43:27.877Z,13.63
2019-04-03T02:46:00.205Z,13.03
2019-04-03T02:48:32.714Z,12.80
2019-04-03T02:51:05.190Z,13.13
2019-04-03T02:53:37.733Z,13.20
2019-04-03T02:56:12.706Z,12.80
2019-04-03T02:58:44.316Z,12.80
2019-04-03T03:01:16.890Z,13.10
2019-04-03T03:03:50.079Z,13.43
2019-04-03T03:06:23.072Z,13.03
2019-04-03T03:08:57.094Z,13.20
2019-04-03T03:11:29.643Z,14.07
2019-04-03T03:14:02.428Z,12.67
2019-04-03T03:16:35.290Z,12.87
2019-04-03T03:19:07.700Z,12.87
2019-04-03T03:21:43.862Z,12.90
2019-04-03T03:24:15.993Z,13.97
2019-04-03T03:26:48.409Z,13.07
2019-04-03T03:29:25.240Z,14.07
2019-04-03T03:32:08.416Z,13.07
2019-04-03T03:34:47.566Z,13.27
2019-04-03T03:37:05.817Z,13.17
2019-04-03T03:39:38.464Z,13.97
2019-04-03T03:42:11.632Z,14.27
2019-04-03T03:44:46.013Z,14.27
2019-04-03T03:47:18.390Z,13.17
2019-04-03T03:49:51.159Z,13.83
2019-04-03T03:52:24.371Z,13.47
2019-04-03T03:54:57.585Z,14.13
2019-04-03T03:57:30.236Z,14.90
2019-04-03T04:00:03.676Z,14.00
2019-04-03T04:02:37.571Z,13.73
2019-04-03T04:05:11.877Z,14.10
2019-04-03T04:07:44.645Z,14.60
2019-04-03T04:10:17.078Z,15.10
2019-04-03T04:12:49.698Z,14.17
2019-04-03T04:15:22.271Z,14.03
2019-04-03T04:17:54.716Z,14.53
2019-04-03T04:20:27.716Z,14.87
2019-04-03T04:23:00.718Z,14.67
2019-04-03T04:25:33.916Z,14.53
2019-04-03T04:28:08.452Z,14.03
2019-04-03T04:30:43.068Z,14.37
2019-04-03T04:33:16.984Z,15.27
2019-04-03T04:35:52.191Z,14.87
2019-04-03T04:38:26.186Z,15.07
2019-04-03T04:41:01.365Z,16.20
2019-04-03T04:43:32.550Z,14.83
2019-04-03T04:46:05.290Z,14.83
2019-04-03T04:48:37.857Z,15.13
2019-04-03T04:51:10.474Z,14.53
2019-04-03T04:53:42.783Z,15.13
2019-04-03T04:56:15.261Z,14.33
2019-04-03T04:58:47.542Z,15.57
2019-04-03T05:01:19.964Z,15.07
2019-04-03T05:03:53.924Z,14.90
2019-04-03T05:06:28.597Z,16.70
2019-04-03T05:09:03.276Z,16.10
2019-04-03T05:11:35.000Z,16.07
2019-04-03T05:14:07.762Z,15.03
2019-04-03T05:16:40.204Z,16.57
2019-04-03T05:19:18.481Z,15.70
2019-04-03T05:21:47.198Z,16.53
2019-04-03T05:24:19.562Z,15.23
2019-04-03T05:26:53.095Z,16.37
2019-04-03T05:29:25.430Z,15.73
2019-04-03T05:31:58.094Z,15.00
2019-04-03T05:34:30.385Z,14.67
2019-04-03T05:37:02.961Z,15.30
2019-04-03T05:39:35.773Z,15.67
2019-04-03T05:42:08.158Z,16.13
2019-04-03T05:44:40.928Z,15.80
2019-04-03T05:47:13.311Z,15.80
2019-04-03T05:49:47.030Z,17.77
2019-04-03T05:52:19.447Z,17.20
2019-04-03T05:54:51.895Z,16.87
2019-04-03T05:57:24.088Z,16.57
2019-04-03T06:00:00.660Z,16.90
2019-04-03T06:02:30.899Z,15.90
2019-04-03T06:05:06.455Z,17.07
2019-04-03T06:07:38.444Z,17.27
2019-04-03T06:10:10.895Z,17.50
2019-04-03T06:12:45.377Z,16.73
2019-04-03T06:15:17.660Z,16.47
2019-04-03T06:17:51.221Z,17.17
2019-04-03T06:20:24.396Z,17.60
2019-04-03T06:22:56.608Z,16.77
2019-04-03T06:25:30.473Z,16.60
2019-04-03T06:28:06.080Z,17.03
2019-04-03T06:30:38.342Z,16.03
2019-04-03T06:33:11.094Z,15.97
2019-04-03T06:35:45.296Z,15.70
2019-04-03T06:38:17.976Z,16.77
2019-04-03T06:40:50.745Z,15.83
2019-04-03T06:43:23.100Z,15.63
2019-04-03T06:45:57.546Z,16.43
2019-04-03T06:48:29.731Z,17.43
2019-04-03T06:51:01.964Z,19.87
2019-04-03T06:53:34.436Z,17.13
2019-04-03T06:56:08.688Z,18.07
2019-04-03T06:58:43.600Z,17.50
2019-04-03T07:01:15.383Z,16.80
2019-04-03T07:03:48.082Z,16.10
2019-04-03T07:06:20.192Z,16.93
2019-04-03T07:08:52.711Z,17.13
2019-04-03T07:11:25.033Z,17.37
2019-04-03T07:13:57.545Z,17.70
2019-04-03T07:16:30.262Z,17.97
2019-04-03T07:19:02.629Z,16.87
2019-04-03T07:21:35.283Z,17.70
2019-04-03T07:24:07.697Z,16.80
2019-04-03T07:26:40.277Z,17.90
2019-04-03T07:29:15.812Z,17.93
2019-04-03T07:31:47.419Z,18.13
2019-04-03T07:34:19.999Z,17.73
2019-04-03T07:36:52.763Z,18.87
2019-04-03T07:39:26.363Z,18.20
2019-04-03T07:41:58.659Z,18.23
2019-04-03T07:44:31.592Z,18.93
2019-04-03T07:47:04.733Z,17.83
2019-04-03T07:49:37.696Z,19.00
2019-04-03T07:52:13.304Z,36.33
2019-04-03T07:54:46.331Z,20.03
2019-04-03T07:57:19.100Z,21.07
2019-04-03T07:59:51.610Z,23.20
2019-04-03T08:02:24.133Z,19.83
2019-04-03T08:05:00.287Z,18.60
2019-04-03T08:07:31.092Z,17.97
2019-04-03T08:10:03.984Z,17.83
2019-04-03T08:12:36.472Z,18.23
2019-04-03T08:15:09.358Z,18.00
2019-04-03T08:17:42.112Z,17.17
2019-04-03T08:20:15.125Z,17.00
2019-04-03T08:22:48.335Z,16.10
2019-04-03T08:25:20.840Z,18.10
2019-04-03T08:27:55.320Z,16.47
2019-04-03T08:30:27.568Z,17.23
2019-04-03T08:33:00.112Z,15.90
2019-04-03T08:35:34.544Z,18.83
2019-04-03T08:38:06.542Z,18.27
2019-04-03T08:40:39.343Z,17.60
2019-04-03T08:43:11.932Z,19.70
2019-04-03T08:45:44.579Z,19.13
2019-04-03T08:48:18.104Z,16.90
2019-04-03T08:50:50.857Z,15.77
2019-04-03T08:53:23.523Z,19.00
2019-04-03T08:55:56.676Z,18.60
2019-04-03T08:58:29.080Z,17.90
2019-04-03T09:01:03.685Z,18.47
2019-04-03T09:03:35.877Z,16.30
2019-04-03T09:06:09.165Z,14.53
2019-04-03T09:08:41.984Z,16.70
2019-04-03T09:11:15.300Z,15.03
2019-04-03T09:13:48.259Z,15.57
2019-04-03T09:16:21.174Z,15.07
2019-04-03T09:18:53.634Z,16.90
2019-04-03T09:21:26.311Z,15.93
2019-04-03T09:23:58.633Z,15.10
2019-04-03T09:26:34.885Z,15.50
2019-04-03T09:29:05.817Z,15.77
2019-04-03T09:31:38.415Z,15.13
2019-04-03T09:34:11.105Z,15.80
2019-04-03T09:36:43.640Z,14.83
2019-04-03T09:39:16.220Z,15.67
2019-04-03T09:41:50.944Z,14.70
2019-04-03T09:44:25.750Z,15.33
2019-04-03T09:47:02.902Z,15.57
2019-04-03T09:49:38.014Z,15.47
2019-04-03T09:52:09.452Z,14.53
2019-04-03T09:54:42.211Z,15.97
2019-04-03T09:57:14.509Z,14.57
2019-04-03T09:59:47.304Z,15.63
2019-04-03T10:02:20.326Z,15.43
2019-04-03T10:04:53.539Z,15.07
2019-04-03T10:07:25.836Z,16.70
2019-04-03T10:09:58.493Z,15.33
2019-04-03T10:12:32.363Z,16.50
2019-04-03T10:15:06.501Z,15.83
2019-04-03T10:17:39.615Z,15.67
2019-04-03T10:20:13.342Z,19.77
2019-04-03T10:22:45.623Z,17.17
2019-04-03T10:25:18.511Z,16.00
2019-04-03T10:27:51.292Z,17.67
2019-04-03T10:30:24.030Z,14.47
2019-04-03T10:32:58.666Z,15.73
2019-04-03T10:35:30.834Z,15.43
2019-04-03T10:38:03.390Z,14.80
2019-04-03T10:40:36.418Z,16.07
2019-04-03T10:43:08.882Z,14.50
2019-04-03T10:45:41.654Z,14.90
2019-04-03T10:48:14.624Z,16.37
2019-04-03T10:50:47.194Z,14.87
2019-04-03T10:53:20.014Z,15.00
2019-04-03T10:55:53.368Z,14.93
2019-04-03T10:58:25.858Z,15.47
2019-04-03T11:00:59.082Z,14.07
2019-04-03T11:03:32.119Z,13.70
2019-04-03T11:06:05.033Z,14.80
2019-04-03T11:08:37.501Z,14.63
2019-04-03T11:11:09.952Z,14.93
2019-04-03T11:13:42.692Z,13.10
2019-04-03T11:16:15.951Z,15.37
2019-04-03T11:18:58.521Z,13.93
2019-04-03T11:21:22.745Z,15.03
2019-04-03T11:23:55.866Z,15.93
2019-04-03T11:26:28.242Z,14.57
2019-04-03T11:29:00.809Z,14.00
2019-04-03T11:31:39.301Z,14.20
2019-04-03T11:34:07.655Z,13.77
2019-04-03T11:36:40.104Z,12.80
2019-04-03T11:39:15.634Z,14.37
2019-04-03T11:41:46.913Z,14.30
2019-04-03T11:44:19.128Z,13.80
2019-04-03T11:46:51.498Z,13.27
2019-04-03T11:49:24.230Z,13.73
2019-04-03T11:51:56.580Z,13.27
2019-04-03T11:54:29.025Z,12.90
2019-04-03T11:57:02.180Z,12.77
2019-04-03T11:59:34.845Z,13.23
2019-04-03T12:02:08.618Z,12.27
2019-04-03T12:04:43.153Z,12.63
2019-04-03T12:07:16.265Z,13.20
2019-04-03T12:09:48.664Z,14.50
2019-04-03T12:12:21.134Z,14.83
2019-04-03T12:14:53.708Z,16.63
2019-04-03T12:17:27.352Z,15.53
2019-04-03T12:20:00.463Z,16.17
2019-04-03T12:22:33.033Z,15.60
2019-04-03T12:25:06.041Z,15.17
2019-04-03T12:27:38.760Z,14.73
2019-04-03T12:30:11.482Z,15.80
2019-04-03T12:32:48.657Z,16.27
2019-04-03T12:35:18.529Z,15.93
2019-04-03T12:37:51.263Z,15.63
2019-04-03T12:40:24.048Z,15.67
2019-04-03T12:42:56.802Z,14.77
2019-04-03T12:45:29.401Z,15.37
2019-04-03T12:48:02.235Z,17.77
2019-04-03T12:50:34.666Z,14.93
2019-04-03T12:53:07.157Z,16.40
2019-04-03T12:55:42.240Z,15.63
2019-04-03T12:58:13.969Z,17.10
2019-04-03T13:00:46.749Z,15.73
2019-04-03T13:03:19.533Z,16.13
2019-04-03T13:05:52.077Z,16.97
2019-04-03T13:08:25.118Z,15.80
2019-04-03T13:10:57.453Z,16.57
2019-04-03T13:13:30.350Z,14.97
2019-04-03T13:16:02.894Z,16.23
2019-04-03T13:18:35.499Z,15.50
2019-04-03T13:21:09.260Z,15.37
2019-04-03T13:23:45.150Z,15.57
2019-04-03T13:26:15.932Z,14.97
2019-04-03T13:28:48.446Z,15.53
2019-04-03T13:31:20.957Z,16.63
2019-04-03T13:33:53.882Z,15.30
2019-04-03T13:36:26.810Z,15.83
2019-04-03T13:39:01.287Z,16.17
2019-04-03T13:41:34.799Z,15.47
2019-04-03T13:44:07.182Z,15.23
2019-04-03T13:46:39.863Z,14.80
2019-04-03T13:49:12.742Z,15.50
2019-04-03T13:51:45.306Z,15.87
2019-04-03T13:54:17.865Z,16.37
2019-04-03T13:56:52.863Z,16.40
2019-04-03T13:59:25.786Z,16.70
2019-04-03T14:01:59.539Z,16.03
2019-04-03T14:04:32.409Z,18.10
2019-04-03T14:07:07.328Z,15.13
2019-04-03T14:09:39.368Z,14.70
2019-04-03T14:12:12.138Z,16.47
2019-04-03T14:14:45.230Z,15.50
2019-04-03T14:17:18.819Z,15.27
2019-04-03T14:19:52.387Z,16.00
2019-04-03T14:22:25.280Z,16.10
2019-04-03T14:24:57.845Z,15.13
2019-04-03T14:27:31.270Z,15.33
2019-04-03T14:30:04.640Z,15.53
2019-04-03T14:32:37.827Z,14.97
2019-04-03T14:35:40.480Z,14.77
2019-04-03T14:37:44.817Z,15.70
2019-04-03T14:40:17.773Z,14.63
2019-04-03T14:42:50.857Z,15.50
2019-04-03T14:45:23.526Z,15.60
2019-04-03T14:47:56.378Z,16.00
2019-04-03T14:50:29.453Z,16.03
2019-04-03T14:53:01.959Z,16.43
2019-04-03T14:55:45.850Z,16.37
2019-04-03T14:58:08.850Z,14.50
2019-04-03T15:00:41.214Z,17.53
2019-04-03T15:03:13.694Z,16.10
2019-04-03T15:05:46.370Z,15.40
2019-04-03T15:08:21.953Z,16.07
2019-04-03T15:10:53.563Z,17.00
2019-04-03T15:13:25.825Z,16.13
2019-04-03T15:16:00.366Z,15.50
2019-04-03T15:18:32.618Z,15.80
2019-04-03T15:21:05.116Z,15.87
2019-04-03T15:23:40.779Z,14.97
2019-04-03T15:26:11.713Z,14.83
2019-04-03T15:28:44.351Z,15.47
2019-04-03T15:31:17.190Z,15.00
2019-04-03T15:33:49.809Z,15.77
2019-04-03T15:36:24.995Z,15.53
2019-04-03T15:38:59.251Z,16.20
2019-04-03T15:41:34.189Z,16.00
2019-04-03T15:44:06.156Z,15.67
2019-04-03T15:46:38.651Z,14.60
2019-04-03T15:49:11.159Z,15.07
2019-04-03T15:51:43.630Z,15.07
2019-04-03T15:54:16.226Z,16.53
2019-04-03T15:56:48.760Z,16.20
2019-04-03T15:59:21.118Z,15.43
2019-04-03T16:01:53.685Z,14.90
2019-04-03T16:04:26.994Z,14.97
2019-04-03T16:07:01.837Z,19.07
2019-04-03T16:09:34.753Z,20.67
2019-04-03T16:12:07.356Z,17.10
2019-04-03T16:14:39.967Z,16.23
2019-04-03T16:17:12.315Z,15.60
2019-04-03T16:19:45.333Z,18.80
2019-04-03T16:22:18.166Z,16.80
2019-04-03T16:24:53.196Z,19.30
2019-04-03T16:27:27.687Z,17.87
2019-04-03T16:30:00.508Z,16.97
2019-04-03T16:32:33.081Z,15.37
2019-04-03T16:35:06.437Z,21.23
2019-04-03T16:37:39.286Z,36.70
2019-04-03T16:40:12.619Z,22.70
2019-04-03T16:42:47.578Z,27.70
2019-04-03T16:45:19.479Z,22.57
2019-04-03T16:47:51.985Z,18.67
2019-04-03T16:50:27.293Z,22.40
2019-04-03T16:52:59.328Z,18.47
2019-04-03T16:55:31.693Z,16.67
2019-04-03T16:58:04.453Z,14.03
2019-04-03T17:00:38.564Z,13.57
2019-04-03T17:03:10.968Z,13.67
2019-04-03T17:05:44.592Z,13.57
2019-04-03T17:08:17.537Z,12.73
2019-04-03T17:10:50.206Z,13.30
2019-04-03T17:13:22.804Z,13.10
2019-04-03T17:15:56.071Z,13.10
2019-04-03T17:18:28.508Z,14.10
2019-04-03T17:21:01.090Z,14.27
2019-04-03T17:23:33.847Z,13.97
2019-04-03T17:26:09.308Z,13.63
2019-04-03T17:28:41.626Z,13.90
2019-04-03T17:31:14.583Z,13.03
2019-04-03T17:33:47.937Z,13.07
2019-04-03T17:36:20.340Z,13.03
2019-04-03T17:38:52.852Z,14.60
2019-04-03T17:41:25.284Z,14.87
2019-04-03T17:43:57.735Z,14.20
2019-04-03T17:46:30.275Z,16.27
2019-04-03T17:49:03.213Z,15.43
2019-04-03T17:51:35.828Z,15.03
2019-04-03T17:54:08.425Z,15.10
2019-04-03T17:56:43.042Z,14.73
2019-04-03T17:59:18.161Z,14.20
2019-04-03T18:01:50.647Z,14.40
2019-04-03T18:04:23.538Z,15.13
2019-04-03T18:06:57.508Z,13.97
2019-04-03T18:09:30.410Z,14.67
2019-04-03T18:12:02.957Z,14.30
2019-04-03T18:14:35.556Z,14.80
2019-04-03T18:17:09.449Z,14.87
2019-04-03T18:19:42.348Z,14.13
2019-04-03T18:22:14.745Z,14.23
2019-04-03T18:24:47.372Z,14.13
2019-04-03T18:27:19.779Z,14.00
2019-04-03T18:29:52.131Z,14.90
2019-04-03T18:32:24.393Z,14.47
2019-04-03T18:34:57.090Z,14.27
2019-04-03T18:37:29.543Z,20.60
2019-04-03T18:40:02.101Z,17.23
2019-04-03T18:42:34.692Z,15.97
2019-04-03T18:45:07.507Z,14.97
2019-04-03T18:47:41.538Z,14.70
2019-04-03T18:50:14.353Z,15.27
2019-04-03T18:52:46.909Z,14.87
2019-04-03T18:55:19.486Z,16.30
2019-04-03T18:57:52.138Z,15.37
2019-04-03T19:00:24.554Z,15.23
2019-04-03T19:02:56.909Z,15.40
2019-04-03T19:05:29.385Z,15.00
2019-04-03T19:08:12.523Z,15.90
2019-04-03T19:10:36.189Z,14.93
2019-04-03T19:13:09.023Z,15.53
2019-04-03T19:15:41.458Z,15.90
2019-04-03T19:18:19.681Z,16.37
2019-04-03T19:20:48.510Z,15.73
2019-04-03T19:23:20.855Z,16.00
2019-04-03T19:25:55.012Z,16.50
2019-04-03T19:28:27.816Z,15.77
2019-04-03T19:31:00.274Z,16.40
2019-04-03T19:33:32.908Z,16.07
2019-04-03T19:36:05.340Z,16.03
2019-04-03T19:38:37.920Z,16.23
2019-04-03T19:41:11.833Z,17.07
2019-04-03T19:43:45.858Z,16.60
2019-04-03T19:46:19.036Z,16.47
2019-04-03T19:48:51.559Z,15.60
2019-04-03T19:51:23.978Z,16.60
2019-04-03T19:53:59.526Z,16.87
2019-04-03T19:56:30.549Z,17.27
2019-04-03T19:59:04.839Z,15.70
2019-04-03T20:01:39.042Z,15.40
2019-04-03T20:04:11.359Z,16.27
2019-04-03T20:06:43.747Z,17.17
2019-04-03T20:09:17.732Z,16.80
2019-04-03T20:11:53.108Z,16.93
2019-04-03T20:14:24.447Z,17.20
2019-04-03T20:16:58.446Z,16.23
2019-04-03T20:19:30.954Z,16.63
2019-04-03T20:22:06.759Z,17.07
2019-04-03T20:24:37.592Z,17.73
2019-04-03T20:27:10.090Z,17.47
2019-04-03T20:29:42.359Z,17.63
2019-04-03T20:32:14.708Z,16.70
2019-04-03T20:34:47.027Z,16.73
2019-04-03T20:37:19.453Z,18.17
2019-04-03T20:39:52.018Z,17.30
2019-04-03T20:42:24.236Z,16.90
2019-04-03T20:44:56.667Z,17.37
2019-04-03T20:47:29.097Z,16.87
2019-04-03T20:50:01.660Z,17.30
2019-04-03T20:52:33.944Z,16.60
2019-04-03T20:55:07.002Z,17.00
2019-04-03T20:57:39.364Z,16.77
2019-04-03T21:00:12.370Z,17.20
2019-04-03T21:02:44.933Z,16.77
2019-04-03T21:05:18.671Z,17.13
2019-04-03T21:07:51.545Z,18.30
2019-04-03T21:10:23.868Z,16.73
2019-04-03T21:12:56.877Z,17.10
2019-04-03T21:15:29.445Z,16.43
2019-04-03T21:18:02.277Z,16.67
2019-04-03T21:20:34.546Z,16.00
2019-04-03T21:23:07.030Z,15.93
2019-04-03T21:25:40.723Z,16.47
2019-04-03T21:28:13.407Z,15.97
2019-04-03T21:30:45.716Z,16.30
2019-04-03T21:33:18.072Z,16.07
2019-04-03T21:35:50.480Z,16.97
2019-04-03T21:38:23.111Z,16.90
2019-04-03T21:40:55.936Z,16.33
2019-04-03T21:43:29.208Z,15.87
2019-04-03T21:46:02.418Z,16.73
2019-04-03T21:48:34.871Z,15.73
2019-04-03T21:51:07.255Z,16.77
2019-04-03T21:53:39.666Z,16.90
2019-04-03T21:56:12.069Z,16.47
2019-04-03T21:58:44.663Z,16.47
2019-04-03T22:01:20.701Z,15.80
2019-04-03T22:03:53.395Z,16.23
2019-04-03T22:06:27.605Z,15.43
2019-04-03T22:09:00.671Z,15.03
2019-04-03T22:11:35.545Z,14.87
2019-04-03T22:14:10.682Z,16.13
2019-04-03T22:16:41.435Z,15.20
2019-04-03T22:19:13.844Z,15.03
2019-04-03T22:21:46.535Z,15.00
2019-04-03T22:24:18.907Z,15.43
2019-04-03T22:26:51.336Z,14.80
2019-04-03T22:29:23.716Z,15.27
2019-04-03T22:31:56.088Z,15.83
2019-04-03T22:34:29.873Z,15.87
2019-04-03T22:37:04.548Z,16.07
2019-04-03T22:39:37.028Z,15.67
2019-04-03T22:42:10.708Z,16.07
2019-04-03T22:44:42.939Z,15.17
2019-04-03T22:47:15.173Z,15.50
2019-04-03T22:49:47.375Z,15.90
2019-04-03T22:52:19.621Z,15.53
2019-04-03T22:54:52.109Z,14.63
2019-04-03T22:57:24.911Z,14.90
2019-04-03T22:59:57.394Z,15.37
2019-04-03T23:02:29.836Z,14.90
2019-04-03T23:05:04.476Z,14.10
2019-04-03T23:07:37.054Z,15.50
2019-04-03T23:10:09.486Z,15.27
2019-04-03T23:12:41.876Z,14.47
2019-04-03T23:15:14.169Z,14.23
2019-04-03T23:17:46.648Z,15.07
2019-04-03T23:20:20.132Z,15.87
2019-04-03T23:22:56.301Z,14.67
2019-04-03T23:25:29.463Z,14.07
2019-04-03T23:28:03.045Z,14.53
2019-04-03T23:30:36.265Z,14.73
2019-04-03T23:33:08.551Z,15.17
2019-04-03T23:35:40.903Z,14.57
2019-04-03T23:38:13.447Z,15.37
2019-04-03T23:40:45.857Z,15.30
2019-04-03T23:43:18.429Z,15.93
2019-04-03T23:45:51.031Z,13.67
2019-04-03T23:48:23.561Z,14.40
2019-04-03T23:50:57.097Z,14.43
2019-04-03T23:53:31.976Z,14.90
2019-04-03T23:56:03.694Z,14.80
2019-04-03T23:58:35.995Z,14.63
